sensor_id;sensor_type;location;lat;lon;timestamp;pressure;altitude;pressure_sealevel;temperature;humidity
46682;BME280;34101;53.430;-2.224;2023-02-01T00:02:21;51956.50;;;-148.94;100.00
46682;BME280;34101;53.430;-2.224;2023-02-01T00:04:48;52017.06;;;-148.94;100.00
46682;BME280;34101;53.430;-2.224;2023-02-01T00:07:15;52037.04;;;-148.94;100.00
46682;BME280;34101;53.430;-2.224;2023-02-01T00:09:43;52566.71;;;-148.94;100.00
46682;BME280;34101;53.430;-2.224;2023-02-01T00:12:10;52037.30;;;-148.94;100.00
46682;BME280;34101;53.430;-2.224;2023-02-01T00:14:38;51745.35;;;-148.94;100.00
46682;BME280;34101;53.430;-2.224;2023-02-01T00:17:06;52324.15;;;-148.94;100.00
46682;BME280;34101;53.430;-2.224;2023-02-01T00:19:33;52064.32;;;-148.94;100.00
46682;BME280;34101;53.430;-2.224;2023-02-01T00:22:01;51957.78;;;-148.94;100.00
46682;BME280;34101;53.430;-2.224;2023-02-01T00:24:28;51653.41;;;-148.94;100.00
46682;BME280;34101;53.430;-2.224;2023-02-01T00:26:56;51474.80;;;-148.94;100.00
46682;BME280;34101;53.430;-2.224;2023-02-01T00:29:23;51281.60;;;-148.94;100.00
46682;BME280;34101;53.430;-2.224;2023-02-01T00:31:51;51523.32;;;-148.94;100.00
46682;BME280;34101;53.430;-2.224;2023-02-01T00:34:19;51688.11;;;-148.94;100.00
46682;BME280;34101;53.430;-2.224;2023-02-01T00:36:46;51678.51;;;-148.94;100.00
46682;BME280;34101;53.430;-2.224;2023-02-01T00:39:13;51517.18;;;-148.94;100.00
46682;BME280;34101;53.430;-2.224;2023-02-01T00:41:41;51522.17;;;-148.94;100.00
46682;BME280;34101;53.430;-2.224;2023-02-01T00:44:09;51322.95;;;-148.94;100.00
46682;BME280;34101;53.430;-2.224;2023-02-01T00:46:42;51662.63;;;-148.94;100.00
46682;BME280;34101;53.430;-2.224;2023-02-01T00:49:09;52416.87;;;-148.94;100.00
46682;BME280;34101;53.430;-2.224;2023-02-01T00:51:36;52367.43;;;-148.94;100.00
46682;BME280;34101;53.430;-2.224;2023-02-01T00:54:04;52478.08;;;-148.94;100.00
46682;BME280;34101;53.430;-2.224;2023-02-01T00:56:31;52986.93;;;-148.94;100.00
46682;BME280;34101;53.430;-2.224;2023-02-01T00:58:58;53704.01;;;-148.94;100.00
46682;BME280;34101;53.430;-2.224;2023-02-01T01:01:27;53686.20;;;-148.94;100.00
46682;BME280;34101;53.430;-2.224;2023-02-01T01:03:56;54091.55;;;-148.94;100.00
46682;BME280;34101;53.430;-2.224;2023-02-01T01:06:25;54278.61;;;-148.94;100.00
46682;BME280;34101;53.430;-2.224;2023-02-01T01:08:55;54100.65;;;-148.94;100.00
46682;BME280;34101;53.430;-2.224;2023-02-01T01:11:25;53988.42;;;-148.94;100.00
46682;BME280;34101;53.430;-2.224;2023-02-01T01:13:55;54431.34;;;-148.94;100.00
46682;BME280;34101;53.430;-2.224;2023-02-01T01:16:26;54599.71;;;-148.94;100.00
46682;BME280;34101;53.430;-2.224;2023-02-01T01:18:54;54997.85;;;-148.94;100.00
46682;BME280;34101;53.430;-2.224;2023-02-01T01:21:21;54289.25;;;-148.94;100.00
46682;BME280;34101;53.430;-2.224;2023-02-01T01:23:49;54708.50;;;-148.94;100.00
46682;BME280;34101;53.430;-2.224;2023-02-01T01:26:18;54063.11;;;-148.94;100.00
46682;BME280;34101;53.430;-2.224;2023-02-01T01:28:47;53882.34;;;-148.94;100.00
46682;BME280;34101;53.430;-2.224;2023-02-01T01:31:15;53542.73;;;-148.94;100.00
46682;BME280;34101;53.430;-2.224;2023-02-01T01:33:43;53782.54;;;-148.94;100.00
46682;BME280;34101;53.430;-2.224;2023-02-01T01:36:12;54025.44;;;-148.94;100.00
46682;BME280;34101;53.430;-2.224;2023-02-01T01:38:39;53989.32;;;-148.94;100.00
46682;BME280;34101;53.430;-2.224;2023-02-01T01:41:07;54223.90;;;-148.94;100.00
46682;BME280;34101;53.430;-2.224;2023-02-01T01:43:56;53940.12;;;-148.94;100.00
46682;BME280;34101;53.430;-2.224;2023-02-01T01:46:26;54183.54;;;-148.94;100.00
46682;BME280;34101;53.430;-2.224;2023-02-01T01:49:01;53892.46;;;-148.94;100.00
46682;BME280;34101;53.430;-2.224;2023-02-01T01:51:32;53551.44;;;-148.94;100.00
46682;BME280;34101;53.430;-2.224;2023-02-01T01:54:05;53891.69;;;-148.94;100.00
46682;BME280;34101;53.430;-2.224;2023-02-01T01:56:35;53642.01;;;-148.94;100.00
46682;BME280;34101;53.430;-2.224;2023-02-01T01:59:03;53691.58;;;-148.94;100.00
46682;BME280;34101;53.430;-2.224;2023-02-01T02:01:32;53928.20;;;-148.94;100.00
46682;BME280;34101;53.430;-2.224;2023-02-01T02:04:00;53478.29;;;-148.94;100.00
46682;BME280;34101;53.430;-2.224;2023-02-01T02:06:38;53063.40;;;-148.94;100.00
46682;BME280;34101;53.430;-2.224;2023-02-01T02:09:08;53658.79;;;-148.94;100.00
46682;BME280;34101;53.430;-2.224;2023-02-01T02:11:35;53869.02;;;-148.94;100.00
46682;BME280;34101;53.430;-2.224;2023-02-01T02:14:04;53307.54;;;-148.94;100.00
46682;BME280;34101;53.430;-2.224;2023-02-01T02:16:42;53111.56;;;-148.94;100.00
46682;BME280;34101;53.430;-2.224;2023-02-01T02:21:56;53104.38;;;-148.94;100.00
46682;BME280;34101;53.430;-2.224;2023-02-01T02:24:43;52991.80;;;-148.94;100.00
46682;BME280;34101;53.430;-2.224;2023-02-01T02:27:24;52737.43;;;-148.94;100.00
46682;BME280;34101;53.430;-2.224;2023-02-01T02:31:17;52309.04;;;-148.94;100.00
46682;BME280;34101;53.430;-2.224;2023-02-01T02:33:59;52176.75;;;-148.94;100.00
46682;BME280;34101;53.430;-2.224;2023-02-01T02:36:38;52362.31;;;-148.94;100.00
46682;BME280;34101;53.430;-2.224;2023-02-01T02:39:11;52117.07;;;-148.94;100.00
46682;BME280;34101;53.430;-2.224;2023-02-01T02:41:49;52636.38;;;-148.94;100.00
46682;BME280;34101;53.430;-2.224;2023-02-01T02:44:23;52683.38;;;-148.94;100.00
46682;BME280;34101;53.430;-2.224;2023-02-01T02:46:57;52297.51;;;-148.94;100.00
46682;BME280;34101;53.430;-2.224;2023-02-01T02:49:32;52412.26;;;-148.94;100.00
46682;BME280;34101;53.430;-2.224;2023-02-01T02:52:06;52308.78;;;-148.94;100.00
46682;BME280;34101;53.430;-2.224;2023-02-01T02:54:39;53627.91;;;-148.94;100.00
46682;BME280;34101;53.430;-2.224;2023-02-01T02:57:12;54093.22;;;-148.94;100.00
46682;BME280;34101;53.430;-2.224;2023-02-01T02:59:41;54133.19;;;-148.94;100.00
46682;BME280;34101;53.430;-2.224;2023-02-01T03:02:12;54362.02;;;-148.94;100.00
46682;BME280;34101;53.430;-2.224;2023-02-01T03:04:39;54626.88;;;-148.94;100.00
46682;BME280;34101;53.430;-2.224;2023-02-01T03:07:48;54316.80;;;-148.94;100.00
46682;BME280;34101;53.430;-2.224;2023-02-01T03:10:23;54427.37;;;-148.94;100.00
46682;BME280;34101;53.430;-2.224;2023-02-01T03:12:54;54870.73;;;-148.94;100.00
46682;BME280;34101;53.430;-2.224;2023-02-01T03:15:32;54848.82;;;-148.94;100.00
46682;BME280;34101;53.430;-2.224;2023-02-01T03:18:05;55137.92;;;-148.94;100.00
46682;BME280;34101;53.430;-2.224;2023-02-01T03:20:35;54573.19;;;-148.94;100.00
46682;BME280;34101;53.430;-2.224;2023-02-01T03:23:05;54331.53;;;-148.94;100.00
46682;BME280;34101;53.430;-2.224;2023-02-01T03:25:33;54309.11;;;-148.94;100.00
46682;BME280;34101;53.430;-2.224;2023-02-01T03:28:04;54120.51;;;-148.94;100.00
46682;BME280;34101;53.430;-2.224;2023-02-01T03:30:36;53582.31;;;-148.94;100.00
46682;BME280;34101;53.430;-2.224;2023-02-01T03:33:06;53620.74;;;-148.94;100.00
46682;BME280;34101;53.430;-2.224;2023-02-01T03:35:40;53206.34;;;-148.94;100.00
46682;BME280;34101;53.430;-2.224;2023-02-01T03:38:19;53186.74;;;-148.94;100.00
46682;BME280;34101;53.430;-2.224;2023-02-01T03:40:54;53337.25;;;-148.94;100.00
46682;BME280;34101;53.430;-2.224;2023-02-01T03:43:23;52952.22;;;-148.94;100.00
46682;BME280;34101;53.430;-2.224;2023-02-01T03:45:59;53270.65;;;-148.94;100.00
46682;BME280;34101;53.430;-2.224;2023-02-01T03:48:28;53740.52;;;-148.94;100.00
46682;BME280;34101;53.430;-2.224;2023-02-01T03:50:58;53130.90;;;-148.94;100.00
46682;BME280;34101;53.430;-2.224;2023-02-01T03:53:28;53612.16;;;-148.94;100.00
46682;BME280;34101;53.430;-2.224;2023-02-01T03:55:57;53714.00;;;-148.94;100.00
46682;BME280;34101;53.430;-2.224;2023-02-01T03:58:25;54314.49;;;-148.94;100.00
46682;BME280;34101;53.430;-2.224;2023-02-01T04:00:55;53991.24;;;-148.94;100.00
46682;BME280;34101;53.430;-2.224;2023-02-01T04:03:22;54208.53;;;-148.94;100.00
46682;BME280;34101;53.430;-2.224;2023-02-01T04:05:51;54812.17;;;-148.94;100.00
46682;BME280;34101;53.430;-2.224;2023-02-01T04:08:19;54666.09;;;-148.94;100.00
46682;BME280;34101;53.430;-2.224;2023-02-01T04:10:47;55020.79;;;-148.94;100.00
46682;BME280;34101;53.430;-2.224;2023-02-01T04:13:14;54955.69;;;-148.94;100.00
46682;BME280;34101;53.430;-2.224;2023-02-01T04:15:42;54983.75;;;-148.94;100.00
46682;BME280;34101;53.430;-2.224;2023-02-01T04:18:09;54699.53;;;-148.94;100.00
46682;BME280;34101;53.430;-2.224;2023-02-01T04:20:36;54877.26;;;-148.94;100.00
46682;BME280;34101;53.430;-2.224;2023-02-01T04:23:04;54710.81;;;-148.94;100.00
46682;BME280;34101;53.430;-2.224;2023-02-01T04:25:31;55296.83;;;-148.94;100.00
46682;BME280;34101;53.430;-2.224;2023-02-01T04:27:59;55231.47;;;-148.94;100.00
46682;BME280;34101;53.430;-2.224;2023-02-01T04:30:26;55153.04;;;-148.94;100.00
46682;BME280;34101;53.430;-2.224;2023-02-01T04:32:54;55022.97;;;-148.94;100.00
46682;BME280;34101;53.430;-2.224;2023-02-01T04:35:21;55317.85;;;-148.94;100.00
46682;BME280;34101;53.430;-2.224;2023-02-01T04:37:48;55325.41;;;-148.94;100.00
46682;BME280;34101;53.430;-2.224;2023-02-01T04:40:21;55193.03;;;-148.94;100.00
46682;BME280;34101;53.430;-2.224;2023-02-01T04:42:49;55454.60;;;-148.94;100.00
46682;BME280;34101;53.430;-2.224;2023-02-01T04:45:16;55544.32;;;-148.94;100.00
46682;BME280;34101;53.430;-2.224;2023-02-01T04:47:43;55346.56;;;-148.94;100.00
46682;BME280;34101;53.430;-2.224;2023-02-01T04:50:11;55272.36;;;-148.94;100.00
46682;BME280;34101;53.430;-2.224;2023-02-01T04:52:38;55218.40;;;-148.94;100.00
46682;BME280;34101;53.430;-2.224;2023-02-01T04:55:07;55232.76;;;-148.94;100.00
46682;BME280;34101;53.430;-2.224;2023-02-01T04:57:34;55093.19;;;-148.94;100.00
46682;BME280;34101;53.430;-2.224;2023-02-01T05:00:03;55092.30;;;-148.94;100.00
46682;BME280;34101;53.430;-2.224;2023-02-01T05:02:30;55194.05;;;-148.94;100.00
46682;BME280;34101;53.430;-2.224;2023-02-01T05:04:58;55011.43;;;-148.94;100.00
46682;BME280;34101;53.430;-2.224;2023-02-01T05:07:25;54940.44;;;-148.94;100.00
46682;BME280;34101;53.430;-2.224;2023-02-01T05:09:53;54880.72;;;-148.94;100.00
46682;BME280;34101;53.430;-2.224;2023-02-01T05:12:21;54603.43;;;-148.94;100.00
46682;BME280;34101;53.430;-2.224;2023-02-01T05:14:48;54612.52;;;-148.94;100.00
46682;BME280;34101;53.430;-2.224;2023-02-01T05:17:16;54376.50;;;-148.94;100.00
46682;BME280;34101;53.430;-2.224;2023-02-01T05:19:43;54699.40;;;-148.94;100.00
46682;BME280;34101;53.430;-2.224;2023-02-01T05:22:10;54671.60;;;-148.94;100.00
46682;BME280;34101;53.430;-2.224;2023-02-01T05:24:38;54465.55;;;-148.94;100.00
46682;BME280;34101;53.430;-2.224;2023-02-01T05:27:05;54221.85;;;-148.94;100.00
46682;BME280;34101;53.430;-2.224;2023-02-01T05:29:33;54002.64;;;-148.94;100.00
46682;BME280;34101;53.430;-2.224;2023-02-01T05:32:00;53970.61;;;-148.94;100.00
46682;BME280;34101;53.430;-2.224;2023-02-01T05:34:28;53728.09;;;-148.94;100.00
46682;BME280;34101;53.430;-2.224;2023-02-01T05:36:55;53539.01;;;-148.94;100.00
46682;BME280;34101;53.430;-2.224;2023-02-01T05:39:22;53382.60;;;-148.94;100.00
46682;BME280;34101;53.430;-2.224;2023-02-01T05:41:50;53125.39;;;-148.94;100.00
46682;BME280;34101;53.430;-2.224;2023-02-01T05:44:17;52945.81;;;-148.94;100.00
46682;BME280;34101;53.430;-2.224;2023-02-01T05:46:45;52752.28;;;-148.94;100.00
46682;BME280;34101;53.430;-2.224;2023-02-01T05:49:12;52636.50;;;-148.94;100.00
46682;BME280;34101;53.430;-2.224;2023-02-01T05:51:40;52605.77;;;-148.94;100.00
46682;BME280;34101;53.430;-2.224;2023-02-01T05:54:08;52284.70;;;-148.94;100.00
46682;BME280;34101;53.430;-2.224;2023-02-01T05:56:35;52203.51;;;-148.94;100.00
46682;BME280;34101;53.430;-2.224;2023-02-01T05:59:03;52359.49;;;-148.94;100.00
46682;BME280;34101;53.430;-2.224;2023-02-01T06:01:31;52074.69;;;-148.94;100.00
46682;BME280;34101;53.430;-2.224;2023-02-01T06:03:58;52465.92;;;-148.94;100.00
46682;BME280;34101;53.430;-2.224;2023-02-01T06:06:25;52588.48;;;-148.94;100.00
46682;BME280;34101;53.430;-2.224;2023-02-01T06:08:53;52013.99;;;-148.94;100.00
46682;BME280;34101;53.430;-2.224;2023-02-01T06:11:20;51819.10;;;-148.94;100.00
46682;BME280;34101;53.430;-2.224;2023-02-01T06:13:47;51646.37;;;-148.94;100.00
46682;BME280;34101;53.430;-2.224;2023-02-01T06:16:15;51233.71;;;-148.94;100.00
46682;BME280;34101;53.430;-2.224;2023-02-01T06:18:42;51735.23;;;-148.94;100.00
46682;BME280;34101;53.430;-2.224;2023-02-01T06:21:10;51554.31;;;-148.94;100.00
46682;BME280;34101;53.430;-2.224;2023-02-01T06:23:37;51466.99;;;-148.94;100.00
46682;BME280;34101;53.430;-2.224;2023-02-01T06:26:06;51619.99;;;-148.94;100.00
46682;BME280;34101;53.430;-2.224;2023-02-01T06:28:34;51760.45;;;-148.94;100.00
46682;BME280;34101;53.430;-2.224;2023-02-01T06:31:03;51264.95;;;-148.94;100.00
46682;BME280;34101;53.430;-2.224;2023-02-01T06:33:32;51447.27;;;-148.94;100.00
46682;BME280;34101;53.430;-2.224;2023-02-01T06:36:01;51601.68;;;-148.94;100.00
46682;BME280;34101;53.430;-2.224;2023-02-01T06:38:28;51280.57;;;-148.94;100.00
46682;BME280;34101;53.430;-2.224;2023-02-01T06:40:57;51185.45;;;-148.94;100.00
46682;BME280;34101;53.430;-2.224;2023-02-01T06:43:25;51268.03;;;-148.94;100.00
46682;BME280;34101;53.430;-2.224;2023-02-01T06:45:59;51117.72;;;-148.94;100.00
46682;BME280;34101;53.430;-2.224;2023-02-01T06:48:26;51065.23;;;-148.94;100.00
46682;BME280;34101;53.430;-2.224;2023-02-01T06:50:54;51335.63;;;-148.94;100.00
46682;BME280;34101;53.430;-2.224;2023-02-01T06:53:21;51045.90;;;-148.94;100.00
46682;BME280;34101;53.430;-2.224;2023-02-01T06:55:53;51341.13;;;-148.94;100.00
46682;BME280;34101;53.430;-2.224;2023-02-01T06:58:20;50818.93;;;-148.94;100.00
46682;BME280;34101;53.430;-2.224;2023-02-01T07:00:48;50296.02;;;-148.94;100.00
46682;BME280;34101;53.430;-2.224;2023-02-01T07:03:16;50495.83;;;-148.94;100.00
46682;BME280;34101;53.430;-2.224;2023-02-01T07:05:44;50620.13;;;-148.94;100.00
46682;BME280;34101;53.430;-2.224;2023-02-01T07:08:11;50972.55;;;-148.94;100.00
46682;BME280;34101;53.430;-2.224;2023-02-01T07:10:38;51113.37;;;-148.94;100.00
46682;BME280;34101;53.430;-2.224;2023-02-01T07:13:06;50552.67;;;-148.94;100.00
46682;BME280;34101;53.430;-2.224;2023-02-01T07:15:33;50734.57;;;-148.94;100.00
46682;BME280;34101;53.430;-2.224;2023-02-01T07:18:00;50790.76;;;-148.94;100.00
46682;BME280;34101;53.430;-2.224;2023-02-01T07:20:28;50608.99;;;-148.94;100.00
46682;BME280;34101;53.430;-2.224;2023-02-01T07:22:56;50890.87;;;-148.94;100.00
46682;BME280;34101;53.430;-2.224;2023-02-01T07:25:23;51295.68;;;-148.94;100.00
46682;BME280;34101;53.430;-2.224;2023-02-01T07:27:51;50555.74;;;-148.94;100.00
46682;BME280;34101;53.430;-2.224;2023-02-01T07:30:18;50586.97;;;-148.94;100.00
46682;BME280;34101;53.430;-2.224;2023-02-01T07:32:45;50508.89;;;-148.94;100.00
46682;BME280;34101;53.430;-2.224;2023-02-01T07:35:13;49832.96;;;-148.94;100.00
46682;BME280;34101;53.430;-2.224;2023-02-01T07:37:40;50427.35;;;-148.94;100.00
46682;BME280;34101;53.430;-2.224;2023-02-01T07:40:09;50517.34;;;-148.94;100.00
46682;BME280;34101;53.430;-2.224;2023-02-01T07:42:37;50514.65;;;-148.94;100.00
46682;BME280;34101;53.430;-2.224;2023-02-01T07:45:05;50052.45;;;-148.94;100.00
46682;BME280;34101;53.430;-2.224;2023-02-01T07:47:32;50438.23;;;-148.94;100.00
46682;BME280;34101;53.430;-2.224;2023-02-01T07:50:00;49792.90;;;-148.94;100.00
46682;BME280;34101;53.430;-2.224;2023-02-01T07:52:28;49949.81;;;-148.94;100.00
46682;BME280;34101;53.430;-2.224;2023-02-01T07:54:55;49929.97;;;-148.94;100.00
46682;BME280;34101;53.430;-2.224;2023-02-01T07:57:22;49945.58;;;-148.94;100.00
46682;BME280;34101;53.430;-2.224;2023-02-01T07:59:49;49794.43;;;-148.94;100.00
46682;BME280;34101;53.430;-2.224;2023-02-01T08:02:17;49643.16;;;-148.94;100.00
46682;BME280;34101;53.430;-2.224;2023-02-01T08:04:45;49250.55;;;-148.94;100.00
46682;BME280;34101;53.430;-2.224;2023-02-01T08:07:12;49188.23;;;-148.94;100.00
46682;BME280;34101;53.430;-2.224;2023-02-01T08:09:39;49478.46;;;-148.94;100.00
46682;BME280;34101;53.430;-2.224;2023-02-01T08:12:07;49162.64;;;-148.94;100.00
46682;BME280;34101;53.430;-2.224;2023-02-01T08:14:34;49558.70;;;-148.94;100.00
46682;BME280;34101;53.430;-2.224;2023-02-01T08:17:02;49175.44;;;-148.94;100.00
46682;BME280;34101;53.430;-2.224;2023-02-01T08:19:29;49380.18;;;-148.94;100.00
46682;BME280;34101;53.430;-2.224;2023-02-01T08:21:57;48942.30;;;-148.94;100.00
46682;BME280;34101;53.430;-2.224;2023-02-01T08:24:24;49409.74;;;-148.94;100.00
46682;BME280;34101;53.430;-2.224;2023-02-01T08:26:52;49176.97;;;-148.94;100.00
46682;BME280;34101;53.430;-2.224;2023-02-01T08:29:20;48710.33;;;-148.94;100.00
46682;BME280;34101;53.430;-2.224;2023-02-01T08:31:47;49553.58;;;-148.94;100.00
46682;BME280;34101;53.430;-2.224;2023-02-01T08:34:15;48974.54;;;-148.94;100.00
46682;BME280;34101;53.430;-2.224;2023-02-01T08:36:42;48900.71;;;-148.94;100.00
46682;BME280;34101;53.430;-2.224;2023-02-01T08:39:10;49008.20;;;-148.94;100.00
46682;BME280;34101;53.430;-2.224;2023-02-01T08:41:38;49385.94;;;-148.94;100.00
46682;BME280;34101;53.430;-2.224;2023-02-01T08:44:06;49099.05;;;-148.94;100.00
46682;BME280;34101;53.430;-2.224;2023-02-01T08:46:33;48835.46;;;-148.94;100.00
46682;BME280;34101;53.430;-2.224;2023-02-01T08:49:00;49581.48;;;-148.94;100.00
46682;BME280;34101;53.430;-2.224;2023-02-01T08:51:28;49526.83;;;-148.94;100.00
46682;BME280;34101;53.430;-2.224;2023-02-01T08:53:55;49351.13;;;-148.94;100.00
46682;BME280;34101;53.430;-2.224;2023-02-01T08:56:23;49427.40;;;-148.94;100.00
46682;BME280;34101;53.430;-2.224;2023-02-01T08:58:50;49300.84;;;-148.94;100.00
46682;BME280;34101;53.430;-2.224;2023-02-01T09:01:17;49427.27;;;-148.94;100.00
46682;BME280;34101;53.430;-2.224;2023-02-01T09:03:45;49505.33;;;-148.94;100.00
46682;BME280;34101;53.430;-2.224;2023-02-01T09:06:14;49415.63;;;-148.94;100.00
46682;BME280;34101;53.430;-2.224;2023-02-01T09:08:41;49767.94;;;-148.94;100.00
46682;BME280;34101;53.430;-2.224;2023-02-01T09:11:12;48889.46;;;-148.94;100.00
46682;BME280;34101;53.430;-2.224;2023-02-01T09:13:40;48765.09;;;-148.94;100.00
46682;BME280;34101;53.430;-2.224;2023-02-01T09:16:07;48339.56;;;-148.94;100.00
46682;BME280;34101;53.430;-2.224;2023-02-01T09:18:34;48615.39;;;-148.94;100.00
46682;BME280;34101;53.430;-2.224;2023-02-01T09:21:04;48981.71;;;-148.94;100.00
46682;BME280;34101;53.430;-2.224;2023-02-01T09:23:31;48812.94;;;-148.94;100.00
46682;BME280;34101;53.430;-2.224;2023-02-01T09:25:59;48366.81;;;-148.94;100.00
46682;BME280;34101;53.430;-2.224;2023-02-01T09:28:26;48269.19;;;-148.94;100.00
46682;BME280;34101;53.430;-2.224;2023-02-01T09:30:56;48278.79;;;-148.94;100.00
46682;BME280;34101;53.430;-2.224;2023-02-01T09:33:23;48940.51;;;-148.94;100.00
46682;BME280;34101;53.430;-2.224;2023-02-01T09:35:55;48549.63;;;-148.94;100.00
46682;BME280;34101;53.430;-2.224;2023-02-01T09:38:23;48179.90;;;-148.94;100.00
46682;BME280;34101;53.430;-2.224;2023-02-01T09:40:50;48218.79;;;-148.94;100.00
46682;BME280;34101;53.430;-2.224;2023-02-01T09:43:29;48550.78;;;-148.94;100.00
46682;BME280;34101;53.430;-2.224;2023-02-01T09:46:13;47927.63;;;-148.94;100.00
46682;BME280;34101;53.430;-2.224;2023-02-01T09:48:45;47908.44;;;-148.94;100.00
46682;BME280;34101;53.430;-2.224;2023-02-01T09:51:16;47943.62;;;-148.94;100.00
46682;BME280;34101;53.430;-2.224;2023-02-01T09:53:58;47588.91;;;-148.94;100.00
46682;BME280;34101;53.430;-2.224;2023-02-01T09:56:34;47623.58;;;-148.94;100.00
46682;BME280;34101;53.430;-2.224;2023-02-01T09:59:08;47329.39;;;-148.94;100.00
46682;BME280;34101;53.430;-2.224;2023-02-01T10:01:37;47306.37;;;-148.94;100.00
46682;BME280;34101;53.430;-2.224;2023-02-01T10:04:07;47716.44;;;-148.94;100.00
46682;BME280;34101;53.430;-2.224;2023-02-01T10:06:45;47120.28;;;-148.94;100.00
46682;BME280;34101;53.430;-2.224;2023-02-01T10:09:27;47084.85;;;-148.94;100.00
46682;BME280;34101;53.430;-2.224;2023-02-01T10:12:15;46902.23;;;-148.94;100.00
46682;BME280;34101;53.430;-2.224;2023-02-01T10:14:57;46693.39;;;-148.94;100.00
46682;BME280;34101;53.430;-2.224;2023-02-01T10:17:39;46729.96;;;-148.94;100.00
46682;BME280;34101;53.430;-2.224;2023-02-01T10:20:18;47029.09;;;-148.94;100.00
46682;BME280;34101;53.430;-2.224;2023-02-01T10:22:57;47514.34;;;-148.94;100.00
46682;BME280;34101;53.430;-2.224;2023-02-01T10:25:31;47583.03;;;-148.94;100.00
46682;BME280;34101;53.430;-2.224;2023-02-01T10:28:00;47540.18;;;-148.94;100.00
46682;BME280;34101;53.430;-2.224;2023-02-01T10:30:33;47416.37;;;-148.94;100.00
46682;BME280;34101;53.430;-2.224;2023-02-01T10:33:15;46992.26;;;-148.94;100.00
46682;BME280;34101;53.430;-2.224;2023-02-01T10:35:45;47244.85;;;-148.94;100.00
46682;BME280;34101;53.430;-2.224;2023-02-01T10:38:19;47105.19;;;-148.94;100.00
46682;BME280;34101;53.430;-2.224;2023-02-01T10:40:52;46994.94;;;-148.94;100.00
46682;BME280;34101;53.430;-2.224;2023-02-01T10:43:20;47978.29;;;-148.94;100.00
46682;BME280;34101;53.430;-2.224;2023-02-01T10:45:47;48285.19;;;-148.94;100.00
46682;BME280;34101;53.430;-2.224;2023-02-01T10:48:14;48258.06;;;-148.94;100.00
46682;BME280;34101;53.430;-2.224;2023-02-01T10:50:48;47764.92;;;-148.94;100.00
46682;BME280;34101;53.430;-2.224;2023-02-01T10:53:21;47565.89;;;-148.94;100.00
46682;BME280;34101;53.430;-2.224;2023-02-01T10:55:53;47982.13;;;-148.94;100.00
46682;BME280;34101;53.430;-2.224;2023-02-01T10:58:26;48237.34;;;-148.94;100.00
46682;BME280;34101;53.430;-2.224;2023-02-01T11:00:57;47978.16;;;-148.94;100.00
46682;BME280;34101;53.430;-2.224;2023-02-01T11:03:34;47657.09;;;-148.94;100.00
46682;BME280;34101;53.430;-2.224;2023-02-01T11:06:10;47724.11;;;-148.94;100.00
46682;BME280;34101;53.430;-2.224;2023-02-01T11:08:47;47685.36;;;-148.94;100.00
46682;BME280;34101;53.430;-2.224;2023-02-01T11:11:16;47923.67;;;-148.94;100.00
46682;BME280;34101;53.430;-2.224;2023-02-01T11:13:43;47957.69;;;-148.94;100.00
46682;BME280;34101;53.430;-2.224;2023-02-01T11:16:13;47721.68;;;-148.94;100.00
46682;BME280;34101;53.430;-2.224;2023-02-01T11:18:40;47723.86;;;-148.94;100.00
46682;BME280;34101;53.430;-2.224;2023-02-01T11:21:10;47784.49;;;-148.94;100.00
46682;BME280;34101;53.430;-2.224;2023-02-01T11:23:41;47867.25;;;-148.94;100.00
46682;BME280;34101;53.430;-2.224;2023-02-01T11:26:12;46939.06;;;-148.94;100.00
46682;BME280;34101;53.430;-2.224;2023-02-01T11:28:46;46443.65;;;-148.94;100.00
46682;BME280;34101;53.430;-2.224;2023-02-01T11:31:17;46297.36;;;-148.94;100.00
46682;BME280;34101;53.430;-2.224;2023-02-01T11:33:49;46478.30;;;-148.94;100.00
46682;BME280;34101;53.430;-2.224;2023-02-01T11:36:20;46065.16;;;-148.94;100.00
46682;BME280;34101;53.430;-2.224;2023-02-01T11:38:54;44551.84;;;-148.94;100.00
46682;BME280;34101;53.430;-2.224;2023-02-01T11:41:23;44812.33;;;-148.94;100.00
46682;BME280;34101;53.430;-2.224;2023-02-01T11:43:54;45227.38;;;-148.94;100.00
46682;BME280;34101;53.430;-2.224;2023-02-01T11:46:27;45881.43;;;-148.94;100.00
46682;BME280;34101;53.430;-2.224;2023-02-01T11:48:57;46223.20;;;-148.94;100.00
46682;BME280;34101;53.430;-2.224;2023-02-01T11:51:39;46803.63;;;-148.94;100.00
46682;BME280;34101;53.430;-2.224;2023-02-01T11:54:21;46739.56;;;-148.94;100.00
46682;BME280;34101;53.430;-2.224;2023-02-01T11:57:02;46819.61;;;-148.94;100.00
46682;BME280;34101;53.430;-2.224;2023-02-01T11:59:49;46929.98;;;-148.94;100.00
46682;BME280;34101;53.430;-2.224;2023-02-01T12:02:35;46872.81;;;-148.94;100.00
46682;BME280;34101;53.430;-2.224;2023-02-01T12:05:18;47367.63;;;-148.94;100.00
46682;BME280;34101;53.430;-2.224;2023-02-01T12:08:03;47284.88;;;-148.94;100.00
46682;BME280;34101;53.430;-2.224;2023-02-01T12:10:42;47088.82;;;-148.94;100.00
46682;BME280;34101;53.430;-2.224;2023-02-01T12:13:25;46539.68;;;-148.94;100.00
46682;BME280;34101;53.430;-2.224;2023-02-01T12:16:06;46197.25;;;-148.94;100.00
46682;BME280;34101;53.430;-2.224;2023-02-01T12:19:56;46788.41;;;-148.94;100.00
46682;BME280;34101;53.430;-2.224;2023-02-01T12:22:36;46489.55;;;-148.94;100.00
46682;BME280;34101;53.430;-2.224;2023-02-01T12:25:19;46979.47;;;-148.94;100.00
46682;BME280;34101;53.430;-2.224;2023-02-01T12:28:00;47657.73;;;-148.94;100.00
46682;BME280;34101;53.430;-2.224;2023-02-01T12:30:49;47681.01;;;-148.94;100.00
46682;BME280;34101;53.430;-2.224;2023-02-01T12:33:29;47352.03;;;-148.94;100.00
46682;BME280;34101;53.430;-2.224;2023-02-01T12:36:10;47110.18;;;-148.94;100.00
46682;BME280;34101;53.430;-2.224;2023-02-01T12:38:47;47647.24;;;-148.94;100.00
46682;BME280;34101;53.430;-2.224;2023-02-01T12:41:30;47757.63;;;-148.94;100.00
46682;BME280;34101;53.430;-2.224;2023-02-01T12:44:04;47988.01;;;-148.94;100.00